sensor_id;sensor_type;location;lat;lon;timestamp;P1;durP1;ratioP1;P2;durP2;ratioP2
10335;SDS011;5213;53.548;9.930;2023-01-28T00:01:49;1.70;;;1.60;;
10335;SDS011;5213;53.548;9.930;2023-01-28T00:04:15;1.50;;;1.40;;
10335;SDS011;5213;53.548;9.930;2023-01-28T00:06:42;1.45;;;1.35;;
10335;SDS011;5213;53.548;9.930;2023-01-28T00:09:08;1.65;;;1.30;;
10335;SDS011;5213;53.548;9.930;2023-01-28T00:11:35;1.30;;;1.20;;
10335;SDS011;5213;53.548;9.930;2023-01-28T00:14:01;2.15;;;1.30;;
10335;SDS011;5213;53.548;9.930;2023-01-28T00:16:28;1.38;;;1.25;;
10335;SDS011;5213;53.548;9.930;2023-01-28T00:18:55;1.48;;;1.38;;
10335;SDS011;5213;53.548;9.930;2023-01-28T00:21:21;2.85;;;1.60;;
10335;SDS011;5213;53.548;9.930;2023-01-28T00:23:49;1.35;;;1.17;;
10335;SDS011;5213;53.548;9.930;2023-01-28T00:26:16;2.88;;;1.63;;
10335;SDS011;5213;53.548;9.930;2023-01-28T00:28:42;1.20;;;1.10;;
10335;SDS011;5213;53.548;9.930;2023-01-28T00:31:09;1.95;;;1.30;;
10335;SDS011;5213;53.548;9.930;2023-01-28T00:33:37;2.95;;;1.10;;
10335;SDS011;5213;53.548;9.930;2023-01-28T00:36:05;1.30;;;1.20;;
10335;SDS011;5213;53.548;9.930;2023-01-28T00:38:31;1.20;;;1.20;;
10335;SDS011;5213;53.548;9.930;2023-01-28T00:43:34;1.67;;;1.20;;
10335;SDS011;5213;53.548;9.930;2023-01-28T00:46:00;2.28;;;1.15;;
10335;SDS011;5213;53.548;9.930;2023-01-28T00:48:26;1.23;;;1.13;;
10335;SDS011;5213;53.548;9.930;2023-01-28T00:50:52;1.45;;;1.17;;
10335;SDS011;5213;53.548;9.930;2023-01-28T00:53:18;1.00;;;1.00;;
10335;SDS011;5213;53.548;9.930;2023-01-28T00:55:44;1.25;;;1.15;;
10335;SDS011;5213;53.548;9.930;2023-01-28T00:58:10;2.35;;;1.30;;
10335;SDS011;5213;53.548;9.930;2023-01-28T01:00:36;1.33;;;1.23;;
10335;SDS011;5213;53.548;9.930;2023-01-28T01:03:02;1.30;;;1.20;;
10335;SDS011;5213;53.548;9.930;2023-01-28T01:05:28;1.67;;;1.30;;
10335;SDS011;5213;53.548;9.930;2023-01-28T01:07:54;1.98;;;1.50;;
10335;SDS011;5213;53.548;9.930;2023-01-28T01:10:21;1.45;;;1.30;;
10335;SDS011;5213;53.548;9.930;2023-01-28T01:12:47;2.67;;;2.25;;
10335;SDS011;5213;53.548;9.930;2023-01-28T01:15:14;1.38;;;1.30;;
10335;SDS011;5213;53.548;9.930;2023-01-28T01:17:41;1.63;;;1.20;;
10335;SDS011;5213;53.548;9.930;2023-01-28T01:20:10;1.40;;;1.25;;
10335;SDS011;5213;53.548;9.930;2023-01-28T01:22:37;1.95;;;1.30;;
10335;SDS011;5213;53.548;9.930;2023-01-28T01:25:03;1.52;;;1.15;;
10335;SDS011;5213;53.548;9.930;2023-01-28T01:27:30;1.85;;;1.20;;
10335;SDS011;5213;53.548;9.930;2023-01-28T01:29:57;1.50;;;1.10;;
10335;SDS011;5213;53.548;9.930;2023-01-28T01:32:23;2.25;;;1.13;;
10335;SDS011;5213;53.548;9.930;2023-01-28T01:34:50;2.33;;;1.25;;
10335;SDS011;5213;53.548;9.930;2023-01-28T01:37:16;1.40;;;1.35;;
10335;SDS011;5213;53.548;9.930;2023-01-28T01:39:42;1.10;;;1.10;;
10335;SDS011;5213;53.548;9.930;2023-01-28T01:42:12;2.58;;;1.38;;
10335;SDS011;5213;53.548;9.930;2023-01-28T01:47:34;1.88;;;1.40;;
10335;SDS011;5213;53.548;9.930;2023-01-28T01:50:02;3.60;;;1.50;;
10335;SDS011;5213;53.548;9.930;2023-01-28T01:52:30;2.25;;;1.67;;
10335;SDS011;5213;53.548;9.930;2023-01-28T01:54:59;2.33;;;1.50;;
10335;SDS011;5213;53.548;9.930;2023-01-28T01:57:28;4.20;;;1.40;;
10335;SDS011;5213;53.548;9.930;2023-01-28T01:59:55;1.58;;;1.20;;
10335;SDS011;5213;53.548;9.930;2023-01-28T02:02:30;2.38;;;1.70;;
10335;SDS011;5213;53.548;9.930;2023-01-28T02:04:56;3.22;;;1.60;;
10335;SDS011;5213;53.548;9.930;2023-01-28T02:07:22;1.65;;;1.50;;
10335;SDS011;5213;53.548;9.930;2023-01-28T02:09:48;3.42;;;1.70;;
10335;SDS011;5213;53.548;9.930;2023-01-28T02:12:19;2.25;;;1.35;;
10335;SDS011;5213;53.548;9.930;2023-01-28T02:14:51;3.40;;;1.58;;
10335;SDS011;5213;53.548;9.930;2023-01-28T02:17:19;2.60;;;1.45;;
10335;SDS011;5213;53.548;9.930;2023-01-28T02:19:47;1.65;;;1.50;;
10335;SDS011;5213;53.548;9.930;2023-01-28T02:27:22;1.70;;;1.60;;
10335;SDS011;5213;53.548;9.930;2023-01-28T02:29:57;1.50;;;1.50;;
10335;SDS011;5213;53.548;9.930;2023-01-28T02:37:53;1.40;;;1.30;;
10335;SDS011;5213;53.548;9.930;2023-01-28T02:40:27;2.10;;;1.77;;
10335;SDS011;5213;53.548;9.930;2023-01-28T02:42:55;3.17;;;1.73;;
10335;SDS011;5213;53.548;9.930;2023-01-28T02:47:47;3.22;;;1.60;;
10335;SDS011;5213;53.548;9.930;2023-01-28T02:50:22;2.13;;;1.55;;
10335;SDS011;5213;53.548;9.930;2023-01-28T02:52:57;2.25;;;1.85;;
10335;SDS011;5213;53.548;9.930;2023-01-28T02:58:36;2.42;;;1.52;;
10335;SDS011;5213;53.548;9.930;2023-01-28T03:05:58;2.40;;;1.73;;
10335;SDS011;5213;53.548;9.930;2023-01-28T03:08:50;2.03;;;1.70;;
10335;SDS011;5213;53.548;9.930;2023-01-28T03:11:38;1.85;;;1.48;;
10335;SDS011;5213;53.548;9.930;2023-01-28T03:14:24;1.40;;;1.30;;
10335;SDS011;5213;53.548;9.930;2023-01-28T03:17:11;1.60;;;1.50;;
10335;SDS011;5213;53.548;9.930;2023-01-28T03:19:59;1.83;;;1.70;;
10335;SDS011;5213;53.548;9.930;2023-01-28T03:22:44;2.58;;;1.50;;
10335;SDS011;5213;53.548;9.930;2023-01-28T03:25:30;2.40;;;1.75;;
10335;SDS011;5213;53.548;9.930;2023-01-28T03:28:15;1.77;;;1.67;;
10335;SDS011;5213;53.548;9.930;2023-01-28T03:31:14;1.80;;;1.70;;
10335;SDS011;5213;53.548;9.930;2023-01-28T03:33:59;1.70;;;1.60;;
10335;SDS011;5213;53.548;9.930;2023-01-28T03:36:45;1.73;;;1.60;;
10335;SDS011;5213;53.548;9.930;2023-01-28T03:39:18;1.70;;;1.60;;
10335;SDS011;5213;53.548;9.930;2023-01-28T03:44:22;2.88;;;2.20;;
10335;SDS011;5213;53.548;9.930;2023-01-28T03:47:08;2.47;;;2.28;;
10335;SDS011;5213;53.548;9.930;2023-01-28T03:49:37;2.22;;;2.03;;
10335;SDS011;5213;53.548;9.930;2023-01-28T03:52:03;2.47;;;2.00;;
10335;SDS011;5213;53.548;9.930;2023-01-28T03:54:29;2.40;;;1.90;;
10335;SDS011;5213;53.548;9.930;2023-01-28T03:56:55;2.50;;;1.83;;
10335;SDS011;5213;53.548;9.930;2023-01-28T03:59:21;2.20;;;1.77;;
10335;SDS011;5213;53.548;9.930;2023-01-28T04:01:47;2.70;;;1.60;;
10335;SDS011;5213;53.548;9.930;2023-01-28T04:04:14;2.67;;;1.67;;
10335;SDS011;5213;53.548;9.930;2023-01-28T04:06:47;1.60;;;1.50;;
10335;SDS011;5213;53.548;9.930;2023-01-28T04:09:13;1.70;;;1.55;;
10335;SDS011;5213;53.548;9.930;2023-01-28T04:11:39;3.10;;;1.50;;
10335;SDS011;5213;53.548;9.930;2023-01-28T04:14:05;1.88;;;1.63;;
10335;SDS011;5213;53.548;9.930;2023-01-28T04:16:31;2.67;;;1.50;;
10335;SDS011;5213;53.548;9.930;2023-01-28T04:18:57;2.10;;;1.70;;
10335;SDS011;5213;53.548;9.930;2023-01-28T04:21:23;2.15;;;1.70;;
10335;SDS011;5213;53.548;9.930;2023-01-28T04:23:49;1.70;;;1.60;;
10335;SDS011;5213;53.548;9.930;2023-01-28T04:26:15;2.92;;;1.77;;
10335;SDS011;5213;53.548;9.930;2023-01-28T04:28:41;1.88;;;1.63;;
10335;SDS011;5213;53.548;9.930;2023-01-28T04:31:07;5.15;;;1.67;;
10335;SDS011;5213;53.548;9.930;2023-01-28T04:33:33;2.00;;;1.70;;
10335;SDS011;5213;53.548;9.930;2023-01-28T04:36:00;1.98;;;1.80;;
10335;SDS011;5213;53.548;9.930;2023-01-28T04:38:26;3.15;;;1.92;;
10335;SDS011;5213;53.548;9.930;2023-01-28T04:40:52;3.83;;;1.98;;
10335;SDS011;5213;53.548;9.930;2023-01-28T04:43:18;2.13;;;1.92;;
10335;SDS011;5213;53.548;9.930;2023-01-28T04:45:45;2.15;;;2.05;;
10335;SDS011;5213;53.548;9.930;2023-01-28T04:48:11;2.00;;;1.85;;
10335;SDS011;5213;53.548;9.930;2023-01-28T04:50:38;2.35;;;1.80;;
10335;SDS011;5213;53.548;9.930;2023-01-28T04:53:04;2.30;;;2.10;;
10335;SDS011;5213;53.548;9.930;2023-01-28T04:55:30;3.85;;;2.00;;
10335;SDS011;5213;53.548;9.930;2023-01-28T04:57:56;2.00;;;1.90;;
10335;SDS011;5213;53.548;9.930;2023-01-28T05:00:22;2.10;;;2.00;;
10335;SDS011;5213;53.548;9.930;2023-01-28T05:02:48;2.35;;;2.00;;
10335;SDS011;5213;53.548;9.930;2023-01-28T05:05:14;3.13;;;2.35;;
10335;SDS011;5213;53.548;9.930;2023-01-28T05:07:40;2.50;;;2.30;;
10335;SDS011;5213;53.548;9.930;2023-01-28T05:10:06;2.38;;;2.17;;
10335;SDS011;5213;53.548;9.930;2023-01-28T05:12:32;2.47;;;2.28;;
10335;SDS011;5213;53.548;9.930;2023-01-28T05:14:59;2.28;;;2.08;;
10335;SDS011;5213;53.548;9.930;2023-01-28T05:17:25;2.17;;;2.08;;
10335;SDS011;5213;53.548;9.930;2023-01-28T05:19:51;3.40;;;2.30;;
10335;SDS011;5213;53.548;9.930;2023-01-28T05:22:17;4.25;;;2.38;;
10335;SDS011;5213;53.548;9.930;2023-01-28T05:24:44;2.80;;;2.47;;
10335;SDS011;5213;53.548;9.930;2023-01-28T05:27:10;3.70;;;2.67;;
10335;SDS011;5213;53.548;9.930;2023-01-28T05:29:36;4.38;;;2.63;;
10335;SDS011;5213;53.548;9.930;2023-01-28T05:32:02;2.92;;;2.60;;
10335;SDS011;5213;53.548;9.930;2023-01-28T05:34:28;2.72;;;2.53;;
10335;SDS011;5213;53.548;9.930;2023-01-28T05:36:54;4.35;;;2.90;;
10335;SDS011;5213;53.548;9.930;2023-01-28T05:39:20;3.53;;;2.97;;
10335;SDS011;5213;53.548;9.930;2023-01-28T05:41:46;4.68;;;3.33;;
10335;SDS011;5213;53.548;9.930;2023-01-28T05:44:12;3.33;;;3.10;;
10335;SDS011;5213;53.548;9.930;2023-01-28T05:46:38;3.40;;;3.10;;
10335;SDS011;5213;53.548;9.930;2023-01-28T05:49:09;4.38;;;2.90;;
10335;SDS011;5213;53.548;9.930;2023-01-28T05:51:37;3.70;;;3.28;;
10335;SDS011;5213;53.548;9.930;2023-01-28T05:54:04;4.50;;;3.40;;
10335;SDS011;5213;53.548;9.930;2023-01-28T05:56:30;4.05;;;3.58;;
10335;SDS011;5213;53.548;9.930;2023-01-28T05:58:56;6.03;;;3.60;;
10335;SDS011;5213;53.548;9.930;2023-01-28T06:01:22;4.40;;;3.22;;
10335;SDS011;5213;53.548;9.930;2023-01-28T06:03:48;4.25;;;3.85;;
10335;SDS011;5213;53.548;9.930;2023-01-28T06:06:14;4.47;;;4.07;;
10335;SDS011;5213;53.548;9.930;2023-01-28T06:08:40;4.50;;;3.75;;
10335;SDS011;5213;53.548;9.930;2023-01-28T06:11:06;4.32;;;3.92;;
10335;SDS011;5213;53.548;9.930;2023-01-28T06:13:32;4.63;;;4.22;;
10335;SDS011;5213;53.548;9.930;2023-01-28T06:15:58;5.88;;;4.22;;
10335;SDS011;5213;53.548;9.930;2023-01-28T06:18:25;7.40;;;4.60;;
10335;SDS011;5213;53.548;9.930;2023-01-28T06:20:51;5.03;;;4.43;;
10335;SDS011;5213;53.548;9.930;2023-01-28T06:23:17;6.13;;;5.00;;
10335;SDS011;5213;53.548;9.930;2023-01-28T06:25:43;6.95;;;4.90;;
10335;SDS011;5213;53.548;9.930;2023-01-28T06:28:09;5.03;;;4.63;;
10335;SDS011;5213;53.548;9.930;2023-01-28T06:30:35;7.10;;;4.75;;
10335;SDS011;5213;53.548;9.930;2023-01-28T06:33:01;5.30;;;4.85;;
10335;SDS011;5213;53.548;9.930;2023-01-28T06:35:27;5.20;;;4.70;;
10335;SDS011;5213;53.548;9.930;2023-01-28T06:37:53;7.72;;;5.00;;
10335;SDS011;5213;53.548;9.930;2023-01-28T06:40:20;5.15;;;4.75;;
10335;SDS011;5213;53.548;9.930;2023-01-28T06:42:47;6.13;;;5.40;;
10335;SDS011;5213;53.548;9.930;2023-01-28T06:45:13;6.50;;;5.55;;
10335;SDS011;5213;53.548;9.930;2023-01-28T06:47:39;7.43;;;5.68;;
10335;SDS011;5213;53.548;9.930;2023-01-28T06:50:06;6.50;;;5.30;;
10335;SDS011;5213;53.548;9.930;2023-01-28T06:52:32;5.65;;;5.20;;
10335;SDS011;5213;53.548;9.930;2023-01-28T06:54:58;5.72;;;5.13;;
10335;SDS011;5213;53.548;9.930;2023-01-28T06:57:25;6.07;;;5.47;;
10335;SDS011;5213;53.548;9.930;2023-01-28T06:59:51;6.03;;;5.53;;
10335;SDS011;5213;53.548;9.930;2023-01-28T07:02:17;5.63;;;5.10;;
10335;SDS011;5213;53.548;9.930;2023-01-28T07:04:43;6.03;;;5.43;;
10335;SDS011;5213;53.548;9.930;2023-01-28T07:07:09;6.43;;;5.55;;
10335;SDS011;5213;53.548;9.930;2023-01-28T07:09:35;6.18;;;5.50;;
10335;SDS011;5213;53.548;9.930;2023-01-28T07:12:01;6.05;;;5.55;;
10335;SDS011;5213;53.548;9.930;2023-01-28T07:14:29;7.53;;;5.57;;
10335;SDS011;5213;53.548;9.930;2023-01-28T07:16:55;6.15;;;5.50;;
10335;SDS011;5213;53.548;9.930;2023-01-28T07:19:21;5.78;;;5.28;;
10335;SDS011;5213;53.548;9.930;2023-01-28T07:21:47;6.35;;;5.75;;
10335;SDS011;5213;53.548;9.930;2023-01-28T07:24:13;6.50;;;5.68;;
10335;SDS011;5213;53.548;9.930;2023-01-28T07:26:39;6.57;;;5.90;;
10335;SDS011;5213;53.548;9.930;2023-01-28T07:29:05;7.07;;;5.50;;
10335;SDS011;5213;53.548;9.930;2023-01-28T07:31:31;7.25;;;5.97;;
10335;SDS011;5213;53.548;9.930;2023-01-28T07:33:57;7.15;;;6.47;;
10335;SDS011;5213;53.548;9.930;2023-01-28T07:36:23;8.13;;;6.05;;
10335;SDS011;5213;53.548;9.930;2023-01-28T07:38:49;7.05;;;6.35;;
10335;SDS011;5213;53.548;9.930;2023-01-28T07:41:15;8.80;;;6.40;;
10335;SDS011;5213;53.548;9.930;2023-01-28T07:43:41;8.38;;;6.95;;
10335;SDS011;5213;53.548;9.930;2023-01-28T07:46:07;7.20;;;6.50;;
10335;SDS011;5213;53.548;9.930;2023-01-28T07:48:33;7.55;;;6.75;;
10335;SDS011;5213;53.548;9.930;2023-01-28T07:51:00;7.78;;;7.00;;
10335;SDS011;5213;53.548;9.930;2023-01-28T07:53:26;7.15;;;6.47;;
10335;SDS011;5213;53.548;9.930;2023-01-28T07:55:57;7.63;;;6.65;;
10335;SDS011;5213;53.548;9.930;2023-01-28T07:58:23;9.10;;;6.68;;
10335;SDS011;5213;53.548;9.930;2023-01-28T08:00:49;7.55;;;6.45;;
10335;SDS011;5213;53.548;9.930;2023-01-28T08:03:15;7.55;;;6.85;;
10335;SDS011;5213;53.548;9.930;2023-01-28T08:05:43;7.35;;;6.63;;
10335;SDS011;5213;53.548;9.930;2023-01-28T08:08:10;8.20;;;7.22;;
10335;SDS011;5213;53.548;9.930;2023-01-28T08:10:36;9.23;;;7.10;;
10335;SDS011;5213;53.548;9.930;2023-01-28T08:13:03;7.90;;;7.00;;
10335;SDS011;5213;53.548;9.930;2023-01-28T08:15:29;9.57;;;7.35;;
10335;SDS011;5213;53.548;9.930;2023-01-28T08:17:56;9.57;;;6.88;;
10335;SDS011;5213;53.548;9.930;2023-01-28T08:20:23;8.32;;;7.53;;
10335;SDS011;5213;53.548;9.930;2023-01-28T08:22:49;9.15;;;7.10;;
10335;SDS011;5213;53.548;9.930;2023-01-28T08:25:15;7.72;;;6.93;;
10335;SDS011;5213;53.548;9.930;2023-01-28T08:27:42;7.13;;;6.43;;
10335;SDS011;5213;53.548;9.930;2023-01-28T08:30:08;7.95;;;7.13;;
10335;SDS011;5213;53.548;9.930;2023-01-28T08:32:35;8.75;;;7.20;;
10335;SDS011;5213;53.548;9.930;2023-01-28T08:35:01;8.13;;;7.03;;
10335;SDS011;5213;53.548;9.930;2023-01-28T08:37:27;7.22;;;6.63;;
10335;SDS011;5213;53.548;9.930;2023-01-28T08:39:53;9.27;;;7.03;;
10335;SDS011;5213;53.548;9.930;2023-01-28T08:42:19;7.90;;;6.82;;
10335;SDS011;5213;53.548;9.930;2023-01-28T08:44:45;7.32;;;6.47;;
10335;SDS011;5213;53.548;9.930;2023-01-28T08:47:12;7.10;;;6.40;;
10335;SDS011;5213;53.548;9.930;2023-01-28T08:49:38;8.88;;;6.90;;
10335;SDS011;5213;53.548;9.930;2023-01-28T08:52:04;7.38;;;6.68;;
10335;SDS011;5213;53.548;9.930;2023-01-28T08:54:31;7.50;;;6.80;;
10335;SDS011;5213;53.548;9.930;2023-01-28T08:56:57;7.10;;;6.25;;
10335;SDS011;5213;53.548;9.930;2023-01-28T08:59:23;7.82;;;7.00;;
10335;SDS011;5213;53.548;9.930;2023-01-28T09:01:49;7.78;;;6.72;;
10335;SDS011;5213;53.548;9.930;2023-01-28T09:04:16;9.93;;;7.03;;
10335;SDS011;5213;53.548;9.930;2023-01-28T09:06:42;8.02;;;7.22;;
10335;SDS011;5213;53.548;9.930;2023-01-28T09:09:08;8.90;;;7.03;;
10335;SDS011;5213;53.548;9.930;2023-01-28T09:11:34;7.72;;;6.93;;
10335;SDS011;5213;53.548;9.930;2023-01-28T09:14:00;7.97;;;6.93;;
10335;SDS011;5213;53.548;9.930;2023-01-28T09:16:26;6.43;;;5.70;;
10335;SDS011;5213;53.548;9.930;2023-01-28T09:18:52;7.30;;;6.07;;
10335;SDS011;5213;53.548;9.930;2023-01-28T09:21:18;5.28;;;4.78;;
10335;SDS011;5213;53.548;9.930;2023-01-28T09:23:44;5.88;;;5.28;;
10335;SDS011;5213;53.548;9.930;2023-01-28T09:26:10;8.27;;;5.72;;
10335;SDS011;5213;53.548;9.930;2023-01-28T09:28:36;6.65;;;6.07;;
10335;SDS011;5213;53.548;9.930;2023-01-28T09:31:05;8.43;;;6.45;;
10335;SDS011;5213;53.548;9.930;2023-01-28T09:33:31;7.07;;;5.93;;
10335;SDS011;5213;53.548;9.930;2023-01-28T09:36:01;6.65;;;5.93;;
10335;SDS011;5213;53.548;9.930;2023-01-28T09:38:28;6.95;;;6.25;;
10335;SDS011;5213;53.548;9.930;2023-01-28T09:40:54;6.82;;;6.15;;
10335;SDS011;5213;53.548;9.930;2023-01-28T09:45:56;5.25;;;4.75;;
10335;SDS011;5213;53.548;9.930;2023-01-28T09:48:24;7.53;;;6.00;;
10335;SDS011;5213;53.548;9.930;2023-01-28T09:50:54;6.40;;;5.43;;
10335;SDS011;5213;53.548;9.930;2023-01-28T09:56:00;5.53;;;5.03;;
10335;SDS011;5213;53.548;9.930;2023-01-28T09:58:26;6.43;;;5.30;;
10335;SDS011;5213;53.548;9.930;2023-01-28T10:04:20;6.68;;;4.82;;
10335;SDS011;5213;53.548;9.930;2023-01-28T10:14:06;16.95;;;5.75;;
10335;SDS011;5213;53.548;9.930;2023-01-28T10:16:42;8.82;;;5.88;;
10335;SDS011;5213;53.548;9.930;2023-01-28T10:19:15;8.98;;;6.25;;
10335;SDS011;5213;53.548;9.930;2023-01-28T10:21:44;23.48;;;6.47;;
10335;SDS011;5213;53.548;9.930;2023-01-28T10:24:16;9.48;;;6.32;;
10335;SDS011;5213;53.548;9.930;2023-01-28T10:26:42;8.10;;;6.15;;
10335;SDS011;5213;53.548;9.930;2023-01-28T10:29:51;7.10;;;6.43;;
10335;SDS011;5213;53.548;9.930;2023-01-28T10:32:13;8.88;;;6.20;;
10335;SDS011;5213;53.548;9.930;2023-01-28T10:34:40;6.43;;;5.80;;
10335;SDS011;5213;53.548;9.930;2023-01-28T10:37:08;6.95;;;5.45;;
10335;SDS011;5213;53.548;9.930;2023-01-28T10:39:34;6.07;;;5.47;;
10335;SDS011;5213;53.548;9.930;2023-01-28T10:42:00;12.68;;;7.22;;
10335;SDS011;5213;53.548;9.930;2023-01-28T10:44:39;7.07;;;5.80;;
10335;SDS011;5213;53.548;9.930;2023-01-28T10:47:09;7.80;;;6.40;;
10335;SDS011;5213;53.548;9.930;2023-01-28T10:49:40;6.88;;;6.13;;
10335;SDS011;5213;53.548;9.930;2023-01-28T10:52:10;6.47;;;5.88;;
10335;SDS011;5213;53.548;9.930;2023-01-28T10:54:36;7.15;;;6.07;;
10335;SDS011;5213;53.548;9.930;2023-01-28T10:57:03;7.03;;;6.30;;
10335;SDS011;5213;53.548;9.930;2023-01-28T10:59:33;6.70;;;6.10;;
10335;SDS011;5213;53.548;9.930;2023-01-28T11:02:04;10.40;;;5.72;;
10335;SDS011;5213;53.548;9.930;2023-01-28T11:04:31;8.02;;;6.30;;
10335;SDS011;5213;53.548;9.930;2023-01-28T11:07:02;6.68;;;6.07;;
10335;SDS011;5213;53.548;9.930;2023-01-28T11:09:35;7.50;;;6.80;;
10335;SDS011;5213;53.548;9.930;2023-01-28T11:12:11;7.60;;;6.43;;
10335;SDS011;5213;53.548;9.930;2023-01-28T11:14:43;8.48;;;6.97;;
10335;SDS011;5213;53.548;9.930;2023-01-28T11:17:15;7.85;;;6.88;;
10335;SDS011;5213;53.548;9.930;2023-01-28T11:19:41;7.78;;;6.32;;
10335;SDS011;5213;53.548;9.930;2023-01-28T11:22:13;7.95;;;7.13;;
10335;SDS011;5213;53.548;9.930;2023-01-28T11:24:45;7.68;;;6.88;;
10335;SDS011;5213;53.548;9.930;2023-01-28T11:27:14;9.05;;;7.32;;
10335;SDS011;5213;53.548;9.930;2023-01-28T11:29:40;8.27;;;7.30;;
10335;SDS011;5213;53.548;9.930;2023-01-28T11:32:19;7.47;;;6.75;;
10335;SDS011;5213;53.548;9.930;2023-01-28T11:34:52;8.38;;;6.72;;
10335;SDS011;5213;53.548;9.930;2023-01-28T11:37:21;8.40;;;6.72;;
10335;SDS011;5213;53.548;9.930;2023-01-28T11:39:48;15.38;;;7.40;;
10335;SDS011;5213;53.548;9.930;2023-01-28T11:42:18;7.30;;;6.60;;
10335;SDS011;5213;53.548;9.930;2023-01-28T11:44:45;7.40;;;6.70;;
10335;SDS011;5213;53.548;9.930;2023-01-28T11:52:14;7.57;;;6.82;;
10335;SDS011;5213;53.548;9.930;2023-01-28T11:57:29;7.22;;;6.47;;
10335;SDS011;5213;53.548;9.930;2023-01-28T12:00:03;10.00;;;7.65;;
10335;SDS011;5213;53.548;9.930;2023-01-28T12:02:54;8.50;;;7.13;;
10335;SDS011;5213;53.548;9.930;2023-01-28T12:11:07;8.88;;;7.75;;
10335;SDS011;5213;53.548;9.930;2023-01-28T12:18:53;11.48;;;7.60;;
10335;SDS011;5213;53.548;9.930;2023-01-28T12:29:21;11.15;;;7.95;;
10335;SDS011;5213;53.548;9.930;2023-01-28T12:37:23;9.73;;;8.32;;
10335;SDS011;5213;53.548;9.930;2023-01-28T12:42:29;9.90;;;8.27;;
10335;SDS011;5213;53.548;9.930;2023-01-28T12:44:59;9.00;;;8.05;;
10335;SDS011;5213;53.548;9.930;2023-01-28T12:47:34;9.10;;;7.93;;
10335;SDS011;5213;53.548;9.930;2023-01-28T12:50:19;8.95;;;8.05;;
10335;SDS011;5213;53.548;9.930;2023-01-28T12:52:46;8.82;;;7.93;;
10335;SDS011;5213;53.548;9.930;2023-01-28T12:57:40;9.20;;;8.27;;
10335;SDS011;5213;53.548;9.930;2023-01-28T13:02:40;10.18;;;8.68;;
10335;SDS011;5213;53.548;9.930;2023-01-28T13:05:09;11.23;;;8.75;;
10335;SDS011;5213;53.548;9.930;2023-01-28T13:10:09;10.05;;;8.70;;
10335;SDS011;5213;53.548;9.930;2023-01-28T13:12:37;9.57;;;8.63;;
10335;SDS011;5213;53.548;9.930;2023-01-28T13:15:04;9.32;;;8.43;;
10335;SDS011;5213;53.548;9.930;2023-01-28T13:17:31;9.57;;;8.07;;
10335;SDS011;5213;53.548;9.930;2023-01-28T13:19:58;11.52;;;8.63;;
10335;SDS011;5213;53.548;9.930;2023-01-28T13:22:25;9.75;;;8.75;;
10335;SDS011;5213;53.548;9.930;2023-01-28T13:24:52;11.25;;;9.48;;
10335;SDS011;5213;53.548;9.930;2023-01-28T13:27:22;10.85;;;9.13;;
10335;SDS011;5213;53.548;9.930;2023-01-28T13:29:58;12.02;;;9.23;;
10335;SDS011;5213;53.548;9.930;2023-01-28T13:32:33;12.02;;;9.60;;
10335;SDS011;5213;53.548;9.930;2023-01-28T13:35:01;10.80;;;9.27;;
10335;SDS011;5213;53.548;9.930;2023-01-28T13:37:29;15.20;;;11.55;;
10335;SDS011;5213;53.548;9.930;2023-01-28T13:42:40;13.45;;;9.77;;
10335;SDS011;5213;53.548;9.930;2023-01-28T13:47:43;12.27;;;10.52;;
10335;SDS011;5213;53.548;9.930;2023-01-28T13:50:11;12.32;;;10.32;;
10335;SDS011;5213;53.548;9.930;2023-01-28T13:52:44;12.63;;;10.80;;
10335;SDS011;5213;53.548;9.930;2023-01-28T14:05:32;13.45;;;10.88;;
10335;SDS011;5213;53.548;9.930;2023-01-28T14:13:32;12.68;;;10.13;;
10335;SDS011;5213;53.548;9.930;2023-01-28T14:18:46;13.57;;;9.90;;
10335;SDS011;5213;53.548;9.930;2023-01-28T14:21:14;13.15;;;10.20;;
10335;SDS011;5213;53.548;9.930;2023-01-28T14:23:49;10.68;;;9.48;;
10335;SDS011;5213;53.548;9.930;2023-01-28T14:26:22;10.85;;;9.20;;
10335;SDS011;5213;53.548;9.930;2023-01-28T14:31:26;11.27;;;10.02;;
10335;SDS011;5213;53.548;9.930;2023-01-28T14:33:53;12.68;;;9.63;;
10335;SDS011;5213;53.548;9.930;2023-01-28T14:36:19;12.02;;;9.80;;
10335;SDS011;5213;53.548;9.930;2023-01-28T14:38:45;14.50;;;11.02;;
10335;SDS011;5213;53.548;9.930;2023-01-28T14:41:22;14.35;;;10.13;;
10335;SDS011;5213;53.548;9.930;2023-01-28T14:43:49;10.55;;;9.15;;
10335;SDS011;5213;53.548;9.930;2023-01-28T14:46:29;16.58;;;9.18;;
10335;SDS011;5213;53.548;9.930;2023-01-28T14:49:00;11.07;;;9.10;;
10335;SDS011;5213;53.548;9.930;2023-01-28T14:51:34;11.10;;;9.07;;
10335;SDS011;5213;53.548;9.930;2023-01-28T14:56:35;11.10;;;9.10;;
10335;SDS011;5213;53.548;9.930;2023-01-28T14:59:15;12.23;;;9.85;;
10335;SDS011;5213;53.548;9.930;2023-01-28T15:01:43;10.38;;;8.32;;
10335;SDS011;5213;53.548;9.930;2023-01-28T15:04:23;15.13;;;9.63;;
10335;SDS011;5213;53.548;9.930;2023-01-28T15:06:49;16.60;;;10.43;;
10335;SDS011;5213;53.548;9.930;2023-01-28T15:09:15;15.63;;;10.95;;
10335;SDS011;5213;53.548;9.930;2023-01-28T15:11:42;13.65;;;10.38;;
10335;SDS011;5213;53.548;9.930;2023-01-28T15:14:12;13.07;;;9.25;;
10335;SDS011;5213;53.548;9.930;2023-01-28T15:16:40;11.48;;;9.50;;
10335;SDS011;5213;53.548;9.930;2023-01-28T15:19:06;13.82;;;9.50;;
10335;SDS011;5213;53.548;9.930;2023-01-28T15:21:33;10.40;;;9.27;;
10335;SDS011;5213;53.548;9.930;2023-01-28T15:24:00;12.98;;;9.82;;
10335;SDS011;5213;53.548;9.930;2023-01-28T15:26:30;11.25;;;9.73;;
10335;SDS011;5213;53.548;9.930;2023-01-28T15:28:57;14.10;;;11.02;;
10335;SDS011;5213;53.548;9.930;2023-01-28T15:31:25;12.00;;;9.57;;
10335;SDS011;5213;53.548;9.930;2023-01-28T15:34:03;11.52;;;9.10;;
10335;SDS011;5213;53.548;9.930;2023-01-28T15:36:29;10.13;;;8.77;;
10335;SDS011;5213;53.548;9.930;2023-01-28T15:38:56;11.20;;;9.27;;
10335;SDS011;5213;53.548;9.930;2023-01-28T15:41:32;17.55;;;10.88;;
10335;SDS011;5213;53.548;9.930;2023-01-28T15:44:00;13.45;;;9.35;;
10335;SDS011;5213;53.548;9.930;2023-01-28T15:46:26;17.38;;;10.90;;
10335;SDS011;5213;53.548;9.930;2023-01-28T15:48:56;16.45;;;11.70;;
10335;SDS011;5213;53.548;9.930;2023-01-28T15:51:24;21.50;;;11.95;;
10335;SDS011;5213;53.548;9.930;2023-01-28T15:53:52;16.90;;;11.50;;
10335;SDS011;5213;53.548;9.930;2023-01-28T15:56:24;19.33;;;13.32;;
10335;SDS011;5213;53.548;9.930;2023-01-28T15:58:51;17.27;;;13.55;;
10335;SDS011;5213;53.548;9.930;2023-01-28T16:01:18;19.52;;;12.88;;
10335;SDS011;5213;53.548;9.930;2023-01-28T16:03:45;15.82;;;11.30;;
10335;SDS011;5213;53.548;9.930;2023-01-28T16:06:13;15.80;;;11.30;;
10335;SDS011;5213;53.548;9.930;2023-01-28T16:08:43;17.63;;;10.85;;
10335;SDS011;5213;53.548;9.930;2023-01-28T16:11:10;12.75;;;9.57;;
10335;SDS011;5213;53.548;9.930;2023-01-28T16:13:40;13.43;;;8.82;;
10335;SDS011;5213;53.548;9.930;2023-01-28T16:16:07;11.85;;;9.18;;
10335;SDS011;5213;53.548;9.930;2023-01-28T16:18:36;14.57;;;10.00;;
10335;SDS011;5213;53.548;9.930;2023-01-28T16:21:03;13.98;;;10.07;;
10335;SDS011;5213;53.548;9.930;2023-01-28T16:23:30;15.27;;;10.93;;
10335;SDS011;5213;53.548;9.930;2023-01-28T16:25:57;13.27;;;9.73;;
10335;SDS011;5213;53.548;9.930;2023-01-28T16:28:24;18.20;;;11.52;;
10335;SDS011;5213;53.548;9.930;2023-01-28T16:30:50;12.77;;;10.23;;
10335;SDS011;5213;53.548;9.930;2023-01-28T16:33:17;11.82;;;9.40;;
10335;SDS011;5213;53.548;9.930;2023-01-28T16:35:43;14.93;;;10.80;;
10335;SDS011;5213;53.548;9.930;2023-01-28T16:38:09;15.38;;;11.20;;
10335;SDS011;5213;53.548;9.930;2023-01-28T16:40:40;18.33;;;12.35;;
10335;SDS011;5213;53.548;9.930;2023-01-28T16:43:08;13.43;;;9.75;;
10335;SDS011;5213;53.548;9.930;2023-01-28T16:45:35;14.35;;;10.13;;
10335;SDS011;5213;53.548;9.930;2023-01-28T16:48:02;15.75;;;10.48;;
10335;SDS011;5213;53.548;9.930;2023-01-28T16:50:28;19.77;;;11.85;;
10335;SDS011;5213;53.548;9.930;2023-01-28T16:52:56;14.98;;;10.73;;
10335;SDS011;5213;53.548;9.930;2023-01-28T16:55:22;18.88;;;11.30;;
10335;SDS011;5213;53.548;9.930;2023-01-28T16:57:49;12.98;;;9.48;;
10335;SDS011;5213;53.548;9.930;2023-01-28T17:02:43;16.58;;;10.30;;